createdAt,value
2018-07-24T00:01:50.028Z,9.80
2018-07-24T00:04:18.738Z,6.27
2018-07-24T00:06:48.368Z,8.87
2018-07-24T00:09:17.076Z,9.93
2018-07-24T00:11:45.736Z,6.40
2018-07-24T00:14:14.402Z,5.93
2018-07-24T00:16:43.125Z,7.37
2018-07-24T00:19:11.817Z,5.50
2018-07-24T00:21:40.469Z,6.30
2018-07-24T00:24:09.204Z,9.50
2018-07-24T00:26:37.889Z,6.97
2018-07-24T00:29:06.578Z,7.70
2018-07-24T00:31:35.259Z,6.77
2018-07-24T00:34:03.708Z,11.43
2018-07-24T00:36:32.296Z,6.70
2018-07-24T00:39:01.008Z,6.60
2018-07-24T00:41:29.777Z,6.57
2018-07-24T00:43:58.443Z,8.13
2018-07-24T00:46:27.082Z,11.40
2018-07-24T00:48:55.560Z,7.30
2018-07-24T00:51:24.137Z,6.93
2018-07-24T00:53:52.818Z,7.20
2018-07-24T00:56:22.210Z,8.53
2018-07-24T00:58:50.910Z,5.70
2018-07-24T01:01:19.653Z,8.67
2018-07-24T01:03:48.350Z,8.50
2018-07-24T01:06:17.035Z,7.00
2018-07-24T01:08:45.738Z,6.63
2018-07-24T01:11:14.464Z,5.90
2018-07-24T01:13:43.140Z,7.60
2018-07-24T01:16:12.451Z,8.80
2018-07-24T01:18:41.120Z,9.00
2018-07-24T01:21:09.822Z,9.03
2018-07-24T01:23:38.498Z,6.70
2018-07-24T01:26:07.148Z,8.80
2018-07-24T01:28:36.135Z,7.53
2018-07-24T01:31:04.834Z,9.97
2018-07-24T01:33:33.534Z,8.33
2018-07-24T01:36:02.295Z,6.40
2018-07-24T01:38:30.982Z,11.90
2018-07-24T01:40:59.688Z,8.40
2018-07-24T01:43:28.393Z,6.80
2018-07-24T01:45:56.893Z,9.93
2018-07-24T01:48:25.521Z,7.57
2018-07-24T01:50:54.212Z,7.70
2018-07-24T01:53:22.919Z,8.00
2018-07-24T01:55:51.422Z,10.23
2018-07-24T01:58:20.073Z,7.40
2018-07-24T02:00:51.252Z,12.03
2018-07-24T02:03:20.793Z,8.13
2018-07-24T02:05:50.156Z,8.83
2018-07-24T02:08:18.849Z,14.73
2018-07-24T02:10:47.568Z,11.57
2018-07-24T02:13:16.244Z,9.33
2018-07-24T02:15:44.950Z,13.97
2018-07-24T02:18:13.634Z,7.77
2018-07-24T02:20:42.330Z,11.30
2018-07-24T02:23:11.279Z,13.03
2018-07-24T02:25:39.948Z,9.33
2018-07-24T02:28:09.033Z,11.77
2018-07-24T02:30:37.783Z,9.00
2018-07-24T02:33:06.526Z,11.70
2018-07-24T02:35:35.263Z,9.80
2018-07-24T02:38:03.924Z,12.83
2018-07-24T02:40:32.572Z,12.93
2018-07-24T02:43:02.229Z,10.63
2018-07-24T02:45:30.915Z,15.63
2018-07-24T02:47:59.687Z,12.63
2018-07-24T02:50:28.358Z,12.03
2018-07-24T02:52:57.150Z,14.57
2018-07-24T02:55:25.805Z,12.50
2018-07-24T02:57:54.494Z,10.33
2018-07-24T03:00:23.212Z,11.17
2018-07-24T03:02:51.856Z,12.37
2018-07-24T03:05:20.548Z,12.70
2018-07-24T03:07:49.258Z,18.83
2018-07-24T03:10:17.966Z,17.87
2018-07-24T03:12:46.647Z,23.10
2018-07-24T03:15:15.366Z,19.17
2018-07-24T03:17:44.024Z,18.60
2018-07-24T03:20:12.802Z,18.90
2018-07-24T03:22:41.502Z,13.40
2018-07-24T03:25:10.200Z,12.30
2018-07-24T03:27:38.878Z,15.13
2018-07-24T03:30:07.593Z,13.30
2018-07-24T03:32:36.335Z,13.73
2018-07-24T03:35:05.019Z,14.10
2018-07-24T03:37:33.722Z,12.70
2018-07-24T03:40:03.344Z,14.83
2018-07-24T03:42:32.005Z,14.27
2018-07-24T03:45:00.538Z,16.67
2018-07-24T03:47:29.131Z,13.33
2018-07-24T03:49:57.796Z,10.67
2018-07-24T03:52:26.461Z,16.73
2018-07-24T03:54:55.134Z,12.33
2018-07-24T03:57:23.829Z,19.00
2018-07-24T03:59:52.586Z,12.60
2018-07-24T04:02:21.120Z,12.90
2018-07-24T04:04:49.683Z,13.30
2018-07-24T04:07:18.387Z,13.10
2018-07-24T04:09:47.125Z,14.33
2018-07-24T04:12:15.787Z,17.20
2018-07-24T04:14:44.481Z,12.43
2018-07-24T04:17:13.197Z,15.00
2018-07-24T04:19:41.899Z,12.73
2018-07-24T04:22:10.385Z,19.20
2018-07-24T04:24:38.983Z,12.57
2018-07-24T04:27:07.744Z,14.17
2018-07-24T04:29:36.430Z,15.97
2018-07-24T04:32:05.179Z,11.50
2018-07-24T04:34:33.868Z,10.63
2018-07-24T04:37:02.529Z,10.50
2018-07-24T04:39:31.279Z,15.50
2018-07-24T04:41:59.982Z,11.10
2018-07-24T04:44:28.654Z,12.47
2018-07-24T04:46:57.352Z,11.20
2018-07-24T04:49:26.033Z,14.10
2018-07-24T04:51:54.723Z,11.23
2018-07-24T04:54:24.265Z,12.30
2018-07-24T04:56:52.975Z,12.20
2018-07-24T04:59:21.453Z,8.90
2018-07-24T05:01:50.070Z,9.33
2018-07-24T05:04:18.844Z,13.47
2018-07-24T05:06:47.465Z,15.70
2018-07-24T05:09:16.153Z,11.90
2018-07-24T05:11:45.078Z,12.60
2018-07-24T05:14:13.730Z,9.37
2018-07-24T05:16:42.880Z,10.57
2018-07-24T05:19:11.540Z,10.97
2018-07-24T05:21:40.282Z,9.50
2018-07-24T05:24:08.773Z,15.90
2018-07-24T05:26:37.360Z,9.40
2018-07-24T05:29:06.042Z,9.17
2018-07-24T05:31:34.684Z,10.93
2018-07-24T05:34:03.386Z,8.60
2018-07-24T05:36:32.060Z,10.07
2018-07-24T05:39:00.734Z,15.80
2018-07-24T05:41:29.407Z,8.70
2018-07-24T05:43:58.145Z,9.67
2018-07-24T05:46:26.804Z,10.77
2018-07-24T05:48:55.530Z,8.90
2018-07-24T05:51:24.237Z,8.40
2018-07-24T05:53:52.878Z,6.50
2018-07-24T05:56:21.568Z,7.40
2018-07-24T05:58:50.216Z,8.57
2018-07-24T06:01:18.914Z,6.93
2018-07-24T06:03:47.586Z,8.13
2018-07-24T06:06:16.281Z,8.70
2018-07-24T06:08:44.942Z,9.67
2018-07-24T06:11:13.651Z,8.63
2018-07-24T06:13:42.305Z,7.00
2018-07-24T06:16:11.003Z,10.17
2018-07-24T06:18:39.758Z,13.00
2018-07-24T06:21:08.428Z,7.53
2018-07-24T06:23:37.180Z,11.50
2018-07-24T06:26:05.835Z,12.93
2018-07-24T06:28:34.644Z,6.97
2018-07-24T06:31:04.002Z,12.33
2018-07-24T06:33:32.592Z,6.83
2018-07-24T06:36:01.208Z,10.43
2018-07-24T06:38:29.901Z,6.80
2018-07-24T06:40:58.710Z,8.83
2018-07-24T06:43:27.189Z,12.33
2018-07-24T06:45:55.889Z,7.13
2018-07-24T06:48:24.573Z,17.73
2018-07-24T06:50:53.053Z,9.23
2018-07-24T06:53:21.634Z,8.20
2018-07-24T06:55:50.126Z,7.37
2018-07-24T06:58:18.719Z,6.60
2018-07-24T07:00:47.433Z,7.70
2018-07-24T07:03:16.136Z,6.47
2018-07-24T07:05:44.889Z,25.40
2018-07-24T07:08:13.551Z,21.37
2018-07-24T07:10:43.031Z,7.10
2018-07-24T07:13:11.485Z,6.00
2018-07-24T07:15:40.023Z,5.40
2018-07-24T07:18:09.549Z,5.67
2018-07-24T07:20:38.270Z,6.03
2018-07-24T07:23:06.901Z,6.63
2018-07-24T07:25:35.656Z,5.83
2018-07-24T07:28:04.345Z,6.80
2018-07-24T07:30:33.017Z,11.50
2018-07-24T07:33:02.018Z,5.87
2018-07-24T07:35:30.727Z,6.27
2018-07-24T07:37:59.936Z,4.93
2018-07-24T07:40:28.565Z,5.20
2018-07-24T07:42:57.274Z,6.45
2018-07-24T07:45:27.418Z,6.70
2018-07-24T07:47:55.871Z,5.40
2018-07-24T07:50:24.394Z,12.65
2018-07-24T07:52:53.178Z,5.97
2018-07-24T07:55:21.909Z,5.00
2018-07-24T07:57:50.654Z,5.65
2018-07-24T08:00:19.594Z,6.05
2018-07-24T08:02:48.280Z,7.70
2018-07-24T08:05:17.006Z,12.43
2018-07-24T08:07:45.801Z,4.65
2018-07-24T08:10:14.471Z,9.25
2018-07-24T08:12:43.170Z,5.25
2018-07-24T08:15:11.664Z,5.72
2018-07-24T08:17:40.261Z,4.90
2018-07-24T08:20:08.985Z,4.25
2018-07-24T08:22:37.722Z,4.83
2018-07-24T08:25:06.447Z,5.50
2018-07-24T08:27:35.130Z,4.80
2018-07-24T08:30:03.960Z,5.20
2018-07-24T08:32:32.675Z,6.25
2018-07-24T08:35:01.345Z,5.40
2018-07-24T08:37:29.856Z,6.75
2018-07-24T08:39:58.453Z,5.42
2018-07-24T08:42:27.137Z,9.58
2018-07-24T08:44:55.795Z,5.47
2018-07-24T08:47:24.474Z,5.05
2018-07-24T08:49:53.137Z,10.38
2018-07-24T08:52:28.379Z,6.30
2018-07-24T08:54:57.102Z,4.80
2018-07-24T08:57:25.432Z,5.20
2018-07-24T08:59:54.115Z,5.40
2018-07-24T09:02:22.604Z,4.90
2018-07-24T09:04:51.224Z,4.70
2018-07-24T09:07:19.981Z,4.92
2018-07-24T09:09:48.630Z,5.03
2018-07-24T09:12:17.382Z,5.08
2018-07-24T09:14:46.058Z,5.30
2018-07-24T09:17:14.553Z,5.20
2018-07-24T09:19:43.149Z,5.25
2018-07-24T09:22:11.863Z,5.87
2018-07-24T09:24:40.342Z,6.65
2018-07-24T09:27:08.852Z,5.00
2018-07-24T09:29:37.416Z,5.30
2018-07-24T09:32:06.217Z,4.37
2018-07-24T09:34:34.834Z,5.70
2018-07-24T09:37:03.318Z,4.90
2018-07-24T09:39:31.660Z,5.15
2018-07-24T09:42:00.225Z,8.40
2018-07-24T09:44:28.977Z,10.48
2018-07-24T09:46:57.425Z,4.72
2018-07-24T09:49:25.826Z,6.05
2018-07-24T09:51:54.435Z,5.85
2018-07-24T09:54:23.198Z,5.72
2018-07-24T09:56:51.858Z,7.10
2018-07-24T09:59:20.693Z,5.80
2018-07-24T10:01:49.141Z,6.17
2018-07-24T10:04:17.521Z,6.42
2018-07-24T10:06:46.173Z,7.37
2018-07-24T10:09:14.854Z,7.35
2018-07-24T10:11:43.586Z,6.92
2018-07-24T10:14:12.373Z,6.28
2018-07-24T10:16:40.887Z,6.72
2018-07-24T10:19:09.438Z,5.85
2018-07-24T10:21:37.933Z,5.42
2018-07-24T10:24:06.541Z,4.55
2018-07-24T10:26:35.247Z,5.25
2018-07-24T10:29:03.965Z,5.00
2018-07-24T10:31:32.433Z,5.20
2018-07-24T10:34:01.042Z,4.92
2018-07-24T10:36:29.550Z,5.78
2018-07-24T10:38:58.174Z,4.95
2018-07-24T10:41:26.847Z,4.83
2018-07-24T10:43:55.560Z,6.33
2018-07-24T10:46:24.240Z,5.40
2018-07-24T10:48:52.760Z,6.33
2018-07-24T10:51:21.365Z,4.67
2018-07-24T10:53:50.046Z,4.10
2018-07-24T10:56:18.741Z,5.03
2018-07-24T10:58:47.456Z,6.17
2018-07-24T11:01:16.157Z,4.87
2018-07-24T11:03:44.860Z,6.80
2018-07-24T11:06:13.307Z,12.20
2018-07-24T11:08:41.903Z,6.00
2018-07-24T11:11:11.360Z,4.80
2018-07-24T11:13:39.740Z,5.20
2018-07-24T11:16:08.346Z,5.80
2018-07-24T11:18:37.095Z,9.83
2018-07-24T11:21:05.610Z,8.83
2018-07-24T11:23:34.197Z,6.78
2018-07-24T11:26:02.692Z,5.28
2018-07-24T11:28:31.094Z,11.40
2018-07-24T11:30:59.668Z,11.22
2018-07-24T11:33:28.409Z,4.12
2018-07-24T11:35:57.202Z,16.15
2018-07-24T11:38:25.790Z,6.17
2018-07-24T11:40:54.346Z,4.65
2018-07-24T11:43:22.904Z,4.22
2018-07-24T11:45:51.445Z,4.10
2018-07-24T11:48:19.841Z,5.55
2018-07-24T11:50:48.417Z,6.00
2018-07-24T11:53:17.117Z,20.75
2018-07-24T11:55:45.780Z,9.87
2018-07-24T11:58:14.476Z,5.23
2018-07-24T12:00:43.170Z,5.77
2018-07-24T12:03:11.871Z,4.50
2018-07-24T12:05:40.507Z,4.90
2018-07-24T12:08:09.160Z,3.72
2018-07-24T12:10:37.907Z,4.30
2018-07-24T12:13:06.621Z,10.40
2018-07-24T12:15:35.295Z,4.27
2018-07-24T12:18:03.955Z,4.57
2018-07-24T12:20:32.626Z,9.13
2018-07-24T12:23:01.302Z,5.73
2018-07-24T12:25:30.003Z,5.93
2018-07-24T12:27:58.705Z,4.77
2018-07-24T12:30:27.391Z,4.93
2018-07-24T12:32:56.136Z,10.50
2018-07-24T12:35:24.859Z,4.80
2018-07-24T12:37:53.534Z,6.90
2018-07-24T12:40:22.224Z,6.13
2018-07-24T12:42:50.949Z,8.73
2018-07-24T12:45:19.669Z,3.70
2018-07-24T12:47:48.355Z,6.87
2018-07-24T12:50:17.054Z,7.47
2018-07-24T12:52:45.760Z,5.23
2018-07-24T12:55:14.213Z,3.80
2018-07-24T12:57:42.826Z,3.17
2018-07-24T13:00:11.496Z,6.43
2018-07-24T13:02:39.981Z,10.17
2018-07-24T13:05:08.646Z,6.20
2018-07-24T13:07:37.344Z,5.80
2018-07-24T13:10:05.843Z,4.57
2018-07-24T13:12:34.152Z,3.07
2018-07-24T13:15:02.518Z,3.33
2018-07-24T13:17:31.109Z,3.20
2018-07-24T13:19:59.798Z,4.17
2018-07-24T13:22:28.280Z,4.90
2018-07-24T13:24:56.921Z,2.80
2018-07-24T13:27:25.461Z,3.90
2018-07-24T13:29:53.868Z,3.23
2018-07-24T13:32:22.393Z,3.40
2018-07-24T13:34:51.735Z,7.10
2018-07-24T13:37:20.124Z,3.70
2018-07-24T13:39:48.548Z,3.60
2018-07-24T13:42:17.102Z,3.20
2018-07-24T13:44:45.820Z,4.37
2018-07-24T13:47:14.577Z,6.40
2018-07-24T13:49:43.164Z,4.03
2018-07-24T13:52:11.936Z,5.37
2018-07-24T13:54:40.572Z,4.30
2018-07-24T13:57:09.281Z,3.60
2018-07-24T13:59:37.756Z,12.07
2018-07-24T14:02:06.897Z,7.23
2018-07-24T14:04:35.370Z,4.63
2018-07-24T14:07:03.930Z,4.50
2018-07-24T14:09:32.634Z,4.00
2018-07-24T14:12:01.101Z,6.57
2018-07-24T14:14:29.500Z,4.50
2018-07-24T14:16:57.846Z,5.83
2018-07-24T14:19:26.497Z,3.63
2018-07-24T14:21:55.867Z,3.90
2018-07-24T14:24:24.532Z,5.33
2018-07-24T14:26:53.000Z,4.23
2018-07-24T14:29:21.423Z,3.27
2018-07-24T14:31:49.963Z,4.90
2018-07-24T14:34:18.475Z,9.67
2018-07-24T14:36:47.066Z,3.73
2018-07-24T14:39:16.326Z,5.00
2018-07-24T14:41:44.813Z,4.13
2018-07-24T14:44:13.408Z,6.80
2018-07-24T14:46:41.876Z,13.43
2018-07-24T14:49:10.352Z,11.50
2018-07-24T14:51:38.951Z,8.17
2018-07-24T14:54:07.492Z,4.70
2018-07-24T14:56:36.064Z,3.20
2018-07-24T14:59:04.729Z,5.23
2018-07-24T15:01:33.425Z,4.03
2018-07-24T15:04:01.873Z,3.27
2018-07-24T15:06:30.270Z,3.93
2018-07-24T15:08:58.726Z,4.60
2018-07-24T15:11:27.095Z,4.90
2018-07-24T15:13:55.731Z,5.23
2018-07-24T15:16:24.186Z,3.40
2018-07-24T15:18:52.823Z,4.23
2018-07-24T15:21:21.305Z,6.90
2018-07-24T15:23:49.882Z,8.07
2018-07-24T15:26:18.513Z,2.70
2018-07-24T15:28:46.910Z,3.40
2018-07-24T15:31:15.633Z,3.97
2018-07-24T15:33:44.032Z,4.10
2018-07-24T15:36:12.422Z,2.90
2018-07-24T15:38:41.034Z,2.93
2018-07-24T15:41:09.484Z,3.20
2018-07-24T15:43:37.927Z,5.30
2018-07-24T15:46:06.507Z,4.37
2018-07-24T15:48:34.964Z,4.73
2018-07-24T15:51:03.549Z,4.50
2018-07-24T15:53:32.270Z,5.93
2018-07-24T15:56:00.764Z,3.47
2018-07-24T15:58:29.360Z,3.47
2018-07-24T16:00:57.824Z,2.83
2018-07-24T16:03:26.506Z,3.93
2018-07-24T16:05:55.153Z,3.37
2018-07-24T16:08:23.877Z,5.40
2018-07-24T16:10:52.330Z,7.10
2018-07-24T16:13:20.736Z,3.47
2018-07-24T16:15:49.342Z,3.17
2018-07-24T16:18:17.740Z,4.07
2018-07-24T16:20:46.156Z,3.40
2018-07-24T16:23:14.692Z,3.77
2018-07-24T16:25:43.147Z,2.73
2018-07-24T16:28:11.774Z,5.80
2018-07-24T16:30:40.457Z,4.37
2018-07-24T16:33:09.116Z,12.03
2018-07-24T16:35:37.866Z,3.60
2018-07-24T16:38:06.435Z,7.50
2018-07-24T16:40:34.805Z,4.23
2018-07-24T16:43:03.392Z,6.07
2018-07-24T16:45:31.981Z,5.87
2018-07-24T16:48:00.352Z,3.80
2018-07-24T16:50:29.009Z,8.20
2018-07-24T16:52:57.384Z,7.30
2018-07-24T16:55:25.773Z,7.53
2018-07-24T16:57:54.166Z,7.93
2018-07-24T17:00:22.559Z,4.53
2018-07-24T17:02:50.996Z,4.97
2018-07-24T17:05:19.523Z,4.20
2018-07-24T17:07:48.018Z,5.23
2018-07-24T17:10:16.411Z,3.73
2018-07-24T17:12:45.019Z,4.67
2018-07-24T17:15:13.706Z,6.13
2018-07-24T17:17:42.405Z,6.93
2018-07-24T17:20:11.142Z,4.17
2018-07-24T17:22:39.584Z,9.67
2018-07-24T17:25:07.936Z,9.27
2018-07-24T17:27:36.599Z,6.30
2018-07-24T17:30:05.046Z,5.33
2018-07-24T17:32:33.647Z,4.97
2018-07-24T17:35:02.121Z,6.90
2018-07-24T17:37:31.008Z,6.13
2018-07-24T17:39:59.460Z,3.90
2018-07-24T17:42:27.875Z,9.10
2018-07-24T17:44:56.256Z,6.77
2018-07-24T17:47:24.728Z,6.23
2018-07-24T17:49:53.321Z,3.70
2018-07-24T17:52:21.998Z,5.17
2018-07-24T17:54:50.479Z,5.90
2018-07-24T17:57:19.055Z,8.20
2018-07-24T17:59:47.570Z,3.93
2018-07-24T18:02:15.973Z,9.10
2018-07-24T18:04:44.584Z,7.57
2018-07-24T18:07:13.109Z,7.23
2018-07-24T18:09:41.527Z,5.87
2018-07-24T18:12:09.934Z,2.97
2018-07-24T18:14:38.298Z,5.20
2018-07-24T18:19:41.604Z,4.27
2018-07-24T18:22:09.986Z,4.73
2018-07-24T18:24:38.370Z,5.70
2018-07-24T18:27:07.034Z,3.53
2018-07-24T18:29:35.497Z,3.63
2018-07-24T18:32:03.919Z,5.50
2018-07-24T18:34:32.281Z,3.87
2018-07-24T18:37:00.922Z,6.37
2018-07-24T18:39:29.410Z,3.43
2018-07-24T18:41:57.813Z,5.23
2018-07-24T18:44:26.222Z,3.43
2018-07-24T18:46:54.905Z,3.37
2018-07-24T18:49:23.242Z,3.97
2018-07-24T18:51:51.879Z,7.27
2018-07-24T18:54:20.396Z,8.77
2018-07-24T18:56:48.997Z,4.50
2018-07-24T18:59:17.517Z,3.60
2018-07-24T19:01:46.014Z,9.00
2018-07-24T19:04:14.404Z,5.10
2018-07-24T19:06:43.674Z,3.07
2018-07-24T19:09:12.356Z,6.30
2018-07-24T19:11:40.945Z,3.70
2018-07-24T19:14:09.607Z,6.50
2018-07-24T19:16:39.132Z,4.90
2018-07-24T19:19:07.737Z,5.53
2018-07-24T19:21:36.327Z,7.90
2018-07-24T19:24:04.722Z,11.20
2018-07-24T19:26:33.323Z,5.10
2018-07-24T19:29:01.862Z,7.50
2018-07-24T19:31:30.253Z,6.80
2018-07-24T19:33:58.674Z,6.80
2018-07-24T19:36:27.290Z,6.77
2018-07-24T19:38:55.812Z,4.43
2018-07-24T19:41:24.191Z,4.80
2018-07-24T19:43:52.616Z,8.20
2018-07-24T19:46:20.976Z,4.53
2018-07-24T19:48:49.352Z,7.03
2018-07-24T19:51:17.937Z,5.77
2018-07-24T19:53:46.491Z,10.10
2018-07-24T19:56:14.974Z,5.07
2018-07-24T19:58:43.351Z,9.33
2018-07-24T20:01:12.043Z,4.77
2018-07-24T20:03:40.631Z,9.80
2018-07-24T20:06:09.052Z,5.27
2018-07-24T20:08:37.659Z,9.40
2018-07-24T20:11:06.184Z,6.80
2018-07-24T20:13:34.846Z,9.77
2018-07-24T20:16:03.309Z,6.00
2018-07-24T20:18:31.916Z,10.10
2018-07-24T20:21:00.564Z,9.80
2018-07-24T20:23:29.392Z,6.70
2018-07-24T20:25:57.725Z,12.23
2018-07-24T20:28:26.321Z,8.97
2018-07-24T20:30:55.252Z,8.53
2018-07-24T20:33:25.306Z,6.23
2018-07-24T20:35:53.848Z,9.27
2018-07-24T20:38:22.413Z,9.90
2018-07-24T20:40:50.976Z,7.97
2018-07-24T20:43:19.685Z,6.93
2018-07-24T20:45:48.396Z,11.70
2018-07-24T20:48:18.102Z,9.00
2018-07-24T20:50:46.609Z,5.83
2018-07-24T20:53:15.204Z,7.80
2018-07-24T20:55:43.681Z,9.73
2018-07-24T20:58:12.313Z,5.70
2018-07-24T21:00:41.009Z,14.87
2018-07-24T21:03:09.529Z,14.07
2018-07-24T21:05:37.860Z,7.07
2018-07-24T21:08:06.341Z,7.43
2018-07-24T21:10:34.729Z,11.60
2018-07-24T21:13:03.384Z,8.53
2018-07-24T21:15:31.789Z,6.93
2018-07-24T21:18:00.386Z,7.40
2018-07-24T21:20:28.858Z,5.67
2018-07-24T21:22:57.263Z,11.93
2018-07-24T21:25:25.884Z,6.03
2018-07-24T21:27:54.610Z,5.83
2018-07-24T21:30:23.061Z,7.00
2018-07-24T21:32:51.675Z,7.47
2018-07-24T21:35:20.357Z,6.83
2018-07-24T21:37:48.859Z,6.73
2018-07-24T21:40:17.266Z,4.73
2018-07-24T21:42:45.958Z,9.10
2018-07-24T21:45:14.413Z,8.43
2018-07-24T21:47:42.777Z,5.50
2018-07-24T21:50:11.389Z,12.70
2018-07-24T21:52:40.112Z,5.10
2018-07-24T21:55:08.828Z,11.37
2018-07-24T21:57:37.539Z,5.23
2018-07-24T22:00:08.884Z,5.97
2018-07-24T22:02:37.319Z,6.13
2018-07-24T22:05:05.989Z,4.20
2018-07-24T22:07:35.517Z,5.17
2018-07-24T22:10:08.851Z,6.43
2018-07-24T22:12:37.491Z,10.00
2018-07-24T22:15:10.329Z,8.33
2018-07-24T22:17:39.074Z,8.13
2018-07-24T22:20:07.489Z,5.63
2018-07-24T22:22:35.978Z,8.53
2018-07-24T22:25:04.827Z,4.30
2018-07-24T22:27:33.566Z,4.57
2018-07-24T22:30:02.318Z,5.80
2018-07-24T22:32:30.851Z,5.00
2018-07-24T22:34:59.281Z,6.90
2018-07-24T22:37:27.671Z,10.33
2018-07-24T22:39:56.236Z,6.40
2018-07-24T22:42:24.743Z,8.43
2018-07-24T22:44:53.379Z,6.37
2018-07-24T22:47:22.113Z,9.37
2018-07-24T22:49:50.618Z,7.23
2018-07-24T22:52:19.010Z,7.50
2018-07-24T22:54:47.689Z,7.20
2018-07-24T22:57:16.461Z,6.50
2018-07-24T22:59:45.137Z,5.57
2018-07-24T23:02:13.831Z,5.83
2018-07-24T23:04:42.542Z,5.27
2018-07-24T23:07:11.057Z,6.87
2018-07-24T23:09:39.492Z,9.73
2018-07-24T23:12:08.137Z,6.53
2018-07-24T23:14:36.873Z,6.83
2018-07-24T23:17:05.638Z,7.93
2018-07-24T23:19:34.138Z,7.03
2018-07-24T23:22:02.726Z,5.70
2018-07-24T23:24:31.491Z,6.17
2018-07-24T23:27:00.166Z,7.80
2018-07-24T23:29:28.920Z,8.67
2018-07-24T23:31:57.436Z,7.40
2018-07-24T23:34:25.838Z,6.97
2018-07-24T23:36:54.490Z,7.13
2018-07-24T23:39:23.010Z,4.70
2018-07-24T23:41:51.590Z,8.93
2018-07-24T23:44:20.307Z,8.40
2018-07-24T23:46:49.080Z,6.33
2018-07-24T23:49:17.573Z,5.27
2018-07-24T23:51:52.041Z,5.87
2018-07-24T23:54:20.749Z,7.30
2018-07-24T23:56:49.236Z,6.33
2018-07-24T23:59:17.918Z,4.40
